Time;durP1;ratioP1;P1;durP2;ratioP2;P2;SDS_P1;SDS_P2;PMS_P1;PMS_P2;Temp;Humidity;BMP_temperature;BMP_pressure;BME280_temperature;BME280_humidity;BME280_pressure;Samples;Min_cycle;Max_cycle;Signal;HPM_P1;HPM_P2
2022/10/27 00:01:56;;;;;;;3.40;1.73;;;;;;;-140.72;100.00;52756.13;5000612;28;20044;-67
2022/10/27 00:04:22;;;;;;;2.33;1.30;;;;;;;-140.72;100.00;52770.31;4994067;28;20037;-66
2022/10/27 00:06:47;;;;;;;2.25;1.48;;;;;;;-140.72;100.00;52794.69;4994901;28;20083;-67
2022/10/27 00:09:12;;;;;;;2.38;1.98;;;;;;;-140.72;100.00;52788.59;5018408;28;20500;-66
2022/10/27 00:11:37;;;;;;;3.35;2.03;;;;;;;-140.72;100.00;52776.41;5013436;28;20329;-68
2022/10/27 00:14:03;;;;;;;5.00;2.15;;;;;;;-140.72;100.00;52804.81;5012641;28;20033;-67
2022/10/27 00:16:28;;;;;;;3.42;1.88;;;;;;;-140.72;100.00;52782.50;4997241;28;20018;-67
2022/10/27 00:18:53;;;;;;;4.57;2.22;;;;;;;-140.72;100.00;52784.53;5016128;28;20384;-66
2022/10/27 00:21:20;;;;;;;2.80;2.00;;;;;;;-140.72;100.00;52780.47;5020211;28;20037;-66
2022/10/27 00:23:50;;;;;;;5.28;2.47;;;;;;;-140.72;100.00;52770.31;5017540;28;20033;-66
2022/10/27 00:26:17;;;;;;;2.67;1.73;;;;;;;-140.72;100.00;52796.72;4997934;28;20036;-66
2022/10/27 00:28:43;;;;;;;2.50;1.88;;;;;;;-140.72;100.00;52792.66;4987430;28;20034;-66
2022/10/27 00:31:17;;;;;;;8.50;2.45;;;;;;;-140.72;100.00;52776.41;5008885;28;20053;-67
2022/10/27 00:33:44;;;;;;;5.18;2.00;;;;;;;-140.72;100.00;52764.25;5011292;28;20047;-66
2022/10/27 00:36:12;;;;;;;4.80;2.42;;;;;;;-140.72;100.00;52788.59;4975528;28;20047;-66
2022/10/27 00:38:38;;;;;;;4.60;2.70;;;;;;;-140.72;100.00;52784.53;5002541;28;20035;-66
2022/10/27 00:41:05;;;;;;;5.32;2.40;;;;;;;-140.72;100.00;52804.81;4998153;28;20141;-66
2022/10/27 00:43:33;;;;;;;3.38;2.47;;;;;;;-140.72;100.00;52831.19;4994429;28;20022;-66
2022/10/27 00:46:26;;;;;;;8.88;2.78;;;;;;;-140.72;100.00;52796.72;5008840;28;20469;-67
2022/10/27 00:48:58;;;;;;;4.90;1.83;;;;;;;-140.72;100.00;52821.06;5003493;28;20038;-67
2022/10/27 00:51:24;;;;;;;3.85;2.38;;;;;;;-140.72;100.00;52794.69;5012656;28;20446;-66
2022/10/27 00:53:49;;;;;;;4.07;2.70;;;;;;;-140.72;100.00;52817.00;5013881;28;20033;-67
2022/10/27 00:56:17;;;;;;;4.70;3.08;;;;;;;-140.72;100.00;52859.63;5013620;28;20032;-66
2022/10/27 00:58:44;;;;;;;3.80;2.35;;;;;;;-140.72;100.00;52814.97;5015844;28;20394;-66
2022/10/27 01:01:10;;;;;;;4.18;2.70;;;;;;;-140.72;100.00;52819.03;5013590;28;20026;-66
2022/10/27 01:03:36;;;;;;;7.00;3.50;;;;;;;-140.72;100.00;52790.63;5015044;28;20041;-67
2022/10/27 01:06:03;;;;;;;6.43;3.20;;;;;;;-140.72;100.00;52821.06;5014245;28;20041;-67
2022/10/27 01:08:29;;;;;;;5.72;2.85;;;;;;;-140.72;100.00;52814.97;5013808;28;20057;-66
2022/10/27 01:10:54;;;;;;;6.53;2.95;;;;;;;-140.72;100.00;52796.72;5003779;28;20029;-66
2022/10/27 01:13:20;;;;;;;5.75;2.80;;;;;;;-140.72;100.00;52825.13;5013696;28;20029;-67
2022/10/27 01:16:06;;;;;;;3.38;2.25;;;;;;;-140.72;100.00;52804.81;5009056;28;20026;-66
2022/10/27 01:18:38;;;;;;;3.65;2.63;;;;;;;-140.72;100.00;52821.06;5008975;28;20526;-66
2022/10/27 01:21:16;;;;;;;3.90;1.92;;;;;;;-140.72;100.00;52853.53;4993551;28;20030;-66
2022/10/27 01:24:11;;;;;;;4.60;2.50;;;;;;;-140.72;100.00;52843.38;4987105;28;20107;-67
2022/10/27 01:27:21;;;;;;;5.78;2.65;;;;;;;-140.72;100.00;52786.56;4960139;28;20061;-66
2022/10/27 01:30:07;;;;;;;2.92;2.13;;;;;;;-140.72;100.00;52845.41;4972837;28;20049;-67
2022/10/27 01:32:35;;;;;;;4.65;3.08;;;;;;;-140.72;100.00;52829.19;4975142;28;20102;-67
2022/10/27 01:35:16;;;;;;;2.88;2.08;;;;;;;-140.72;100.00;52802.78;4991789;28;20478;-67
2022/10/27 01:38:08;;;;;;;5.68;3.28;;;;;;;-140.72;100.00;52798.72;5011223;28;20449;-67
2022/10/27 01:40:46;;;;;;;3.67;1.95;;;;;;;-140.72;100.00;52853.53;5013686;28;20026;-66
2022/10/27 01:43:17;;;;;;;3.88;2.22;;;;;;;-140.72;100.00;52825.13;5004827;28;20052;-66
2022/10/27 01:45:42;;;;;;;5.45;2.55;;;;;;;-140.72;100.00;52833.22;4994262;28;20022;-66
2022/10/27 01:48:10;;;;;;;5.03;2.88;;;;;;;-140.72;100.00;52845.41;5002183;28;20148;-66
2022/10/27 01:50:37;;;;;;;4.22;2.45;;;;;;;-140.72;100.00;52814.97;4992692;28;20030;-66
2022/10/27 01:53:03;;;;;;;4.55;2.38;;;;;;;-140.72;100.00;52833.22;4994097;28;20045;-66
2022/10/27 01:55:45;;;;;;;3.10;2.30;;;;;;;-140.72;100.00;52812.94;5015272;28;20473;-66
2022/10/27 01:58:44;;;;;;;6.80;2.45;;;;;;;-140.72;100.00;52817.00;4992705;28;20027;-66
2022/10/27 02:01:09;;;;;;;4.80;2.80;;;;;;;-140.72;100.00;52802.78;5000074;28;20037;-66
2022/10/27 02:03:52;;;;;;;7.55;2.72;;;;;;;-140.72;100.00;52851.50;4996173;28;20299;-66
2022/10/27 02:06:28;;;;;;;4.32;2.60;;;;;;;-140.72;100.00;52871.78;5001020;28;20492;-67
2022/10/27 02:09:09;;;;;;;4.55;3.15;;;;;;;-140.72;100.00;52800.75;5011853;28;20021;-67
2022/10/27 02:11:37;;;;;;;4.53;3.45;;;;;;;-140.72;100.00;52869.75;5022334;28;20045;-66
2022/10/27 02:14:04;;;;;;;3.85;2.40;;;;;;;-140.72;100.00;52845.41;5006630;28;20382;-65
2022/10/27 02:16:33;;;;;;;3.40;2.33;;;;;;;-140.72;100.00;52827.16;5013462;28;20056;-66
2022/10/27 02:19:09;;;;;;;4.15;3.17;;;;;;;-140.72;100.00;52804.81;5007216;28;20041;-66
2022/10/27 02:21:36;;;;;;;4.32;2.63;;;;;;;-140.72;100.00;52859.63;4992818;28;20121;-66
2022/10/27 02:24:04;;;;;;;6.28;3.08;;;;;;;-140.72;100.00;52851.50;5016191;28;20129;-66
2022/10/27 02:26:38;;;;;;;2.35;2.10;;;;;;;-140.72;100.00;52784.53;4996959;28;20088;-66
2022/10/27 02:29:11;;;;;;;12.57;3.08;;;;;;;-140.72;100.00;52861.66;5009112;28;20030;-66
2022/10/27 02:31:40;;;;;;;3.78;2.42;;;;;;;-140.72;100.00;52865.69;5012867;28;20044;-66
2022/10/27 02:34:06;;;;;;;4.00;2.30;;;;;;;-140.72;100.00;52847.44;5003669;23;20105;-68
2022/10/27 02:36:32;;;;;;;3.40;2.20;;;;;;;-140.72;100.00;52821.06;4982492;28;20537;-68
2022/10/27 02:38:58;;;;;;;4.38;2.63;;;;;;;-140.72;100.00;52821.06;5000410;28;20060;-68
2022/10/27 02:41:23;;;;;;;3.97;2.83;;;;;;;-140.72;100.00;52837.28;5000873;28;20021;-68
2022/10/27 02:43:49;;;;;;;4.78;3.05;;;;;;;-140.72;100.00;52881.94;5008310;28;20076;-69
2022/10/27 02:46:14;;;;;;;4.05;2.17;;;;;;;-140.72;100.00;52837.28;5011995;28;20514;-68
2022/10/27 02:48:39;;;;;;;4.68;2.53;;;;;;;-140.72;100.00;52877.88;4987290;28;20050;-68
2022/10/27 02:51:05;;;;;;;4.38;2.85;;;;;;;-140.72;100.00;52865.69;4980951;28;20494;-69
2022/10/27 02:53:30;;;;;;;5.78;2.95;;;;;;;-140.72;100.00;52829.19;5014060;28;20089;-69
2022/10/27 02:55:55;;;;;;;4.50;2.03;;;;;;;-140.72;100.00;52841.34;5013166;28;20370;-69
2022/10/27 02:58:21;;;;;;;6.93;2.38;;;;;;;-140.72;100.00;52829.19;5013196;28;20083;-69
2022/10/27 03:00:46;;;;;;;2.85;1.80;;;;;;;-140.72;100.00;52861.66;5005771;28;20045;-69
2022/10/27 03:03:11;;;;;;;6.53;2.75;;;;;;;-140.72;100.00;52837.28;4990023;28;20026;-69
2022/10/27 03:05:37;;;;;;;4.72;2.53;;;;;;;-140.72;100.00;52841.34;4984589;28;20054;-69
2022/10/27 03:08:02;;;;;;;3.28;2.05;;;;;;;-140.72;100.00;52861.66;4977123;28;20038;-69
2022/10/27 03:10:28;;;;;;;2.28;1.65;;;;;;;-140.72;100.00;52865.69;4998589;28;20482;-69
2022/10/27 03:12:53;;;;;;;3.28;2.05;;;;;;;-140.72;100.00;52851.50;4985007;28;20542;-69
2022/10/27 03:15:19;;;;;;;7.57;3.10;;;;;;;-140.72;100.00;52825.13;4994323;28;20482;-69
2022/10/27 03:17:47;;;;;;;4.38;2.22;;;;;;;-140.72;100.00;52857.59;5005453;28;20447;-69
2022/10/27 03:20:14;;;;;;;3.22;1.88;;;;;;;-140.72;100.00;52845.41;4980626;28;20034;-69
2022/10/27 03:22:40;;;;;;;5.22;2.03;;;;;;;-140.72;100.00;52851.50;4996940;28;20113;-69
2022/10/27 03:25:07;;;;;;;3.20;1.95;;;;;;;-140.72;100.00;52873.81;4996931;28;20034;-69
2022/10/27 03:27:33;;;;;;;3.70;2.10;;;;;;;-140.72;100.00;52875.84;4997400;28;20031;-69
2022/10/27 03:29:58;;;;;;;4.38;2.30;;;;;;;-140.72;100.00;52873.81;4996883;28;20030;-68
2022/10/27 03:32:23;;;;;;;2.00;1.65;;;;;;;-140.72;100.00;52867.72;4995062;28;20049;-69
2022/10/27 03:34:49;;;;;;;3.42;1.92;;;;;;;-140.72;100.00;52855.56;4997223;28;20127;-68
2022/10/27 03:37:14;;;;;;;4.10;2.08;;;;;;;-140.72;100.00;52849.47;5002001;28;20122;-69
2022/10/27 03:39:39;;;;;;;3.92;2.05;;;;;;;-140.72;100.00;52812.94;5003020;28;20045;-68
2022/10/27 03:42:05;;;;;;;2.67;1.83;;;;;;;-140.72;100.00;52845.41;5008978;28;20038;-69
2022/10/27 03:44:30;;;;;;;4.53;2.40;;;;;;;-140.72;100.00;52857.59;4995382;28;20029;-68
2022/10/27 03:46:55;;;;;;;3.70;2.35;;;;;;;-140.72;100.00;52833.22;5002137;28;20548;-68
2022/10/27 03:49:21;;;;;;;2.97;2.17;;;;;;;-140.72;100.00;52827.16;4979992;28;20030;-68
2022/10/27 03:51:46;;;;;;;2.85;1.67;;;;;;;-140.72;100.00;52833.22;4999738;28;20038;-68
2022/10/27 03:54:11;;;;;;;4.43;2.60;;;;;;;-140.72;100.00;52853.53;4999935;28;20030;-68
2022/10/27 03:56:37;;;;;;;3.38;2.58;;;;;;;-140.72;100.00;52859.63;4983016;28;20022;-68
2022/10/27 03:59:02;;;;;;;5.65;2.45;;;;;;;-140.72;100.00;52888.03;5009730;28;20097;-68
2022/10/27 04:01:31;;;;;;;3.58;2.17;;;;;;;-140.72;100.00;52845.41;4991329;28;20169;-68
2022/10/27 04:03:56;;;;;;;4.63;2.60;;;;;;;-140.72;100.00;52855.56;4998871;28;20492;-69
2022/10/27 04:06:21;;;;;;;3.42;2.10;;;;;;;-140.72;100.00;52879.91;5010318;28;20026;-69
2022/10/27 04:08:47;;;;;;;6.93;2.13;;;;;;;-140.72;100.00;52877.88;5002394;28;20033;-69
2022/10/27 04:11:12;;;;;;;3.65;1.92;;;;;;;-140.72;100.00;52861.66;4988458;28;20493;-69
2022/10/27 04:13:39;;;;;;;2.90;2.33;;;;;;;-140.72;100.00;52855.56;4993383;28;20015;-68
2022/10/27 04:16:05;;;;;;;3.85;2.33;;;;;;;-140.72;100.00;52841.34;5000995;28;20045;-68
2022/10/27 04:18:30;;;;;;;2.90;1.92;;;;;;;-140.72;100.00;52859.63;4999752;28;20018;-68
2022/10/27 04:20:59;;;;;;;7.43;2.55;;;;;;;-140.72;100.00;52853.53;4999713;28;20056;-68
2022/10/27 04:23:25;;;;;;;3.05;1.75;;;;;;;-140.72;100.00;52890.06;5005325;28;20085;-69
2022/10/27 04:25:50;;;;;;;2.05;1.52;;;;;;;-140.72;100.00;52831.19;4979625;28;20478;-68
2022/10/27 04:28:15;;;;;;;4.10;2.20;;;;;;;-140.72;100.00;52875.84;5016598;28;20037;-69
2022/10/27 04:30:41;;;;;;;5.38;2.30;;;;;;;-140.72;100.00;52904.25;5018813;28;20030;-68
2022/10/27 04:33:07;;;;;;;3.78;1.92;;;;;;;-140.72;100.00;52853.53;5004711;28;20030;-69
2022/10/27 04:35:32;;;;;;;3.13;2.05;;;;;;;-140.72;100.00;52873.81;5012811;28;20034;-69
2022/10/27 04:37:57;;;;;;;3.35;1.77;;;;;;;-140.72;100.00;52859.63;5004688;28;20473;-69
2022/10/27 04:40:23;;;;;;;2.60;1.38;;;;;;;-140.72;100.00;52861.66;4993290;28;20068;-69
2022/10/27 04:42:48;;;;;;;4.50;2.83;;;;;;;-140.72;100.00;52867.72;5020585;28;20021;-69
2022/10/27 04:45:14;;;;;;;5.55;2.22;;;;;;;-140.72;100.00;52837.28;5017298;28;20444;-69
2022/10/27 04:47:40;;;;;;;3.22;2.50;;;;;;;-140.72;100.00;52833.22;5012662;28;20030;-69
2022/10/27 04:50:06;;;;;;;3.22;2.47;;;;;;;-140.72;100.00;52817.00;5008371;28;20029;-69
2022/10/27 04:52:31;;;;;;;5.60;2.17;;;;;;;-140.72;100.00;52883.97;5002737;28;20069;-68
2022/10/27 04:54:56;;;;;;;3.72;2.35;;;;;;;-140.72;100.00;52865.69;5008733;28;20030;-69
2022/10/27 04:57:22;;;;;;;3.70;2.17;;;;;;;-140.72;100.00;52833.22;5017710;28;20030;-69
2022/10/27 04:59:47;;;;;;;6.85;2.38;;;;;;;-140.72;100.00;52863.66;5000927;28;20033;-69
2022/10/27 05:02:12;;;;;;;3.00;2.22;;;;;;;-140.72;100.00;52812.94;5016165;28;20030;-69
2022/10/27 05:04:38;;;;;;;3.05;2.10;;;;;;;-140.72;100.00;52849.47;5008073;28;20478;-69
2022/10/27 05:07:03;;;;;;;4.70;2.70;;;;;;;-140.72;100.00;52849.47;4998171;28;20041;-69
2022/10/27 05:09:28;;;;;;;5.85;3.45;;;;;;;-140.72;100.00;52833.22;5000263;28;20109;-69
2022/10/27 05:11:54;;;;;;;3.80;2.20;;;;;;;-140.72;100.00;52863.66;4998324;28;20023;-69
2022/10/27 05:14:19;;;;;;;4.95;2.50;;;;;;;-140.72;100.00;52833.22;4999754;28;20076;-68
2022/10/27 05:16:44;;;;;;;3.75;1.83;;;;;;;-140.72;100.00;52845.41;5000982;28;20038;-68
2022/10/27 05:19:10;;;;;;;3.80;1.85;;;;;;;-140.72;100.00;52847.44;4998458;28;20061;-69
2022/10/27 05:21:35;;;;;;;3.00;2.10;;;;;;;-140.72;100.00;52857.59;4999132;28;20049;-68
2022/10/27 05:24:00;;;;;;;3.55;1.85;;;;;;;-140.72;100.00;52825.13;4997663;28;20081;-68
2022/10/27 05:26:26;;;;;;;3.58;2.10;;;;;;;-140.72;100.00;52843.38;4994982;28;20026;-68
2022/10/27 05:28:51;;;;;;;2.17;1.58;;;;;;;-140.72;100.00;52833.22;4998918;28;20092;-68
2022/10/27 05:31:16;;;;;;;2.30;1.73;;;;;;;-140.72;100.00;52823.09;4982028;28;20034;-68
2022/10/27 05:33:42;;;;;;;3.55;1.63;;;;;;;-140.72;100.00;52829.19;4997843;28;20080;-68
2022/10/27 05:36:07;;;;;;;5.07;1.63;;;;;;;-140.72;100.00;52814.97;4997302;28;20045;-69
2022/10/27 05:38:32;;;;;;;5.50;1.77;;;;;;;-140.72;100.00;52877.88;4996784;28;20038;-68
2022/10/27 05:40:58;;;;;;;3.17;1.67;;;;;;;-140.72;100.00;52821.06;4997375;28;20025;-68
2022/10/27 05:43:23;;;;;;;6.15;1.52;;;;;;;-140.72;100.00;52849.47;4996648;28;20019;-68
2022/10/27 05:45:50;;;;;;;2.35;1.35;;;;;;;-140.72;100.00;52837.28;4984428;28;20030;-68
2022/10/27 05:48:15;;;;;;;2.83;1.60;;;;;;;-140.72;100.00;52798.72;5007790;28;20057;-68
2022/10/27 05:50:40;;;;;;;4.20;1.65;;;;;;;-140.72;100.00;52837.28;4998888;28;20161;-68
2022/10/27 05:53:06;;;;;;;2.25;1.38;;;;;;;-140.72;100.00;52833.22;5010162;28;20030;-69
2022/10/27 05:55:32;;;;;;;1.83;1.40;;;;;;;-140.72;100.00;52798.72;4980365;28;20183;-69
2022/10/27 05:58:03;;;;;;;2.85;1.27;;;;;;;-140.72;100.00;52827.16;5005068;28;20014;-69
2022/10/27 06:00:31;;;;;;;5.53;1.60;;;;;;;-140.72;100.00;52806.84;5015396;28;20409;-69
2022/10/27 06:02:58;;;;;;;2.60;1.20;;;;;;;-140.72;100.00;52786.56;4998801;28;20022;-69
2022/10/27 06:05:28;;;;;;;2.72;1.10;;;;;;;-140.72;100.00;52808.88;4999561;28;20026;-69
2022/10/27 06:07:54;;;;;;;1.60;1.00;;;;;;;-140.72;100.00;52817.00;4998411;28;20470;-69
2022/10/27 06:10:19;;;;;;;2.13;1.23;;;;;;;-140.72;100.00;52802.78;5011842;28;20017;-69
2022/10/27 06:12:45;;;;;;;3.33;1.52;;;;;;;-140.72;100.00;52804.81;5016181;28;20061;-69
2022/10/27 06:15:10;;;;;;;2.88;1.10;;;;;;;-140.72;100.00;52790.63;4999336;28;20033;-69
2022/10/27 06:17:36;;;;;;;3.90;1.33;;;;;;;-140.72;100.00;52798.72;5006981;28;20080;-69
2022/10/27 06:20:01;;;;;;;2.22;1.27;;;;;;;-140.72;100.00;52806.84;4999932;28;20108;-69
2022/10/27 06:22:27;;;;;;;3.03;1.20;;;;;;;-140.72;100.00;52833.22;4996817;28;20371;-69
2022/10/27 06:24:52;;;;;;;2.38;1.30;;;;;;;-140.72;100.00;52784.53;4994564;28;20038;-69
2022/10/27 06:27:17;;;;;;;6.03;1.40;;;;;;;-140.72;100.00;52855.56;4998019;28;20034;-69
2022/10/27 06:29:43;;;;;;;3.35;1.90;;;;;;;-140.72;100.00;52817.00;4998718;28;20026;-68
2022/10/27 06:32:08;;;;;;;2.38;1.00;;;;;;;-140.72;100.00;52825.13;4998120;28;20037;-69
2022/10/27 06:34:33;;;;;;;3.13;1.23;;;;;;;-140.72;100.00;52798.72;4995383;28;20405;-68
2022/10/27 06:36:59;;;;;;;2.75;1.38;;;;;;;-140.72;100.00;52821.06;4997355;28;20442;-68
2022/10/27 06:39:24;;;;;;;1.73;1.10;;;;;;;-140.72;100.00;52837.28;4990836;28;20057;-68
2022/10/27 06:41:49;;;;;;;2.97;1.60;;;;;;;-140.72;100.00;52819.03;5004033;28;20032;-68
2022/10/27 06:44:15;;;;;;;2.38;1.38;;;;;;;-140.72;100.00;52823.09;4988065;28;20109;-69
2022/10/27 06:46:40;;;;;;;2.63;1.45;;;;;;;-140.72;100.00;52865.69;4996184;28;20125;-69
2022/10/27 06:49:05;;;;;;;2.10;1.35;;;;;;;-140.72;100.00;52845.41;4993544;28;20022;-69
2022/10/27 06:51:31;;;;;;;1.98;1.10;;;;;;;-140.72;100.00;52871.78;5008792;28;20461;-68
2022/10/27 06:53:56;;;;;;;4.32;1.77;;;;;;;-140.72;100.00;52825.13;4996472;28;20027;-68
2022/10/27 06:56:22;;;;;;;2.92;1.60;;;;;;;-140.72;100.00;52881.94;4996952;28;20038;-68
2022/10/27 06:58:47;;;;;;;2.20;1.63;;;;;;;-140.72;100.00;52833.22;4996462;28;20109;-68
2022/10/27 07:01:13;;;;;;;3.58;1.85;;;;;;;-140.72;100.00;52829.19;4996912;28;20034;-68
2022/10/27 07:03:38;;;;;;;2.78;1.50;;;;;;;-140.72;100.00;52853.53;4997033;28;20069;-69
2022/10/27 07:06:04;;;;;;;3.83;1.73;;;;;;;-140.72;100.00;52831.19;4996608;28;20093;-68
2022/10/27 07:08:29;;;;;;;3.13;1.77;;;;;;;-140.72;100.00;52829.19;4995160;28;20034;-68
2022/10/27 07:10:54;;;;;;;4.32;1.88;;;;;;;-140.72;100.00;52865.69;4996549;28;20408;-68
2022/10/27 07:13:20;;;;;;;4.25;1.73;;;;;;;-140.72;100.00;52869.75;4997110;28;20056;-68
2022/10/27 07:15:45;;;;;;;6.40;1.85;;;;;;;-140.72;100.00;52837.28;4996221;28;20030;-68
2022/10/27 07:18:11;;;;;;;2.83;1.52;;;;;;;-140.72;100.00;52849.47;4978138;28;20489;-69
2022/10/27 07:20:39;;;;;;;2.97;1.65;;;;;;;-140.72;100.00;52853.53;4996833;28;20478;-68
2022/10/27 07:23:06;;;;;;;4.63;1.70;;;;;;;-140.72;100.00;52857.59;4996140;28;20038;-68
2022/10/27 07:25:33;;;;;;;2.97;1.67;;;;;;;-140.72;100.00;52877.88;4995048;28;20639;-69
2022/10/27 07:28:01;;;;;;;2.85;1.15;;;;;;;-140.72;100.00;52857.59;4996447;28;20018;-69
2022/10/27 07:30:29;;;;;;;6.22;1.65;;;;;;;-140.72;100.00;52851.50;4997095;28;20397;-68
2022/10/27 07:32:56;;;;;;;2.47;1.40;;;;;;;-140.72;100.00;52861.66;4997460;28;20029;-68
2022/10/27 07:35:22;;;;;;;2.75;1.30;;;;;;;-140.72;100.00;52861.66;5013723;28;20038;-69
2022/10/27 07:37:47;;;;;;;3.10;1.77;;;;;;;-140.72;100.00;52817.00;5004641;28;20098;-68
2022/10/27 07:40:14;;;;;;;4.45;1.35;;;;;;;-140.72;100.00;52845.41;4996364;28;20026;-68
2022/10/27 07:42:51;;;;;;;2.22;1.60;;;;;;;-140.72;100.00;52823.09;4987278;28;20038;-68
2022/10/27 07:45:19;;;;;;;1.73;1.15;;;;;;;-140.72;100.00;52817.00;4984600;28;20033;-69
2022/10/27 07:47:45;;;;;;;4.43;1.45;;;;;;;-140.72;100.00;52833.22;5009175;28;20089;-69
2022/10/27 07:50:11;;;;;;;2.65;1.52;;;;;;;-140.72;100.00;52810.91;4996313;28;20037;-69
2022/10/27 07:52:44;;;;;;;3.13;1.05;;;;;;;-140.72;100.00;52808.88;4998501;28;20022;-69
2022/10/27 07:55:11;;;;;;;6.07;1.58;;;;;;;-140.72;100.00;52796.72;5004777;28;20069;-68
2022/10/27 07:57:37;;;;;;;3.42;1.48;;;;;;;-140.72;100.00;52804.81;5009230;28;20026;-67
2022/10/27 08:00:08;;;;;;;2.00;1.00;;;;;;;-140.72;100.00;52821.06;5008539;28;20034;-68
2022/10/27 08:02:33;;;;;;;2.78;1.00;;;;;;;-140.72;100.00;52810.91;4997760;28;20022;-68
2022/10/27 08:04:58;;;;;;;2.25;0.98;;;;;;;-140.72;100.00;52770.31;4972988;28;20390;-68
2022/10/27 08:07:24;;;;;;;2.50;1.27;;;;;;;-140.72;100.00;52800.75;5006358;28;20427;-69
2022/10/27 08:09:49;;;;;;;2.42;0.90;;;;;;;-140.72;100.00;52806.84;4978555;28;20030;-69
2022/10/27 08:12:14;;;;;;;3.47;1.40;;;;;;;-140.72;100.00;52794.69;4991255;28;20031;-69
2022/10/27 08:14:40;;;;;;;2.42;1.15;;;;;;;-140.72;100.00;52806.84;5008531;28;20033;-68
2022/10/27 08:17:05;;;;;;;4.50;1.10;;;;;;;-140.72;100.00;52790.63;4978258;28;20031;-68
2022/10/27 08:19:31;;;;;;;1.13;0.63;;;;;;;-140.72;100.00;52758.16;4991357;28;20040;-69
2022/10/27 08:21:56;;;;;;;2.63;0.82;;;;;;;-140.72;100.00;52774.38;5000432;28;20023;-68
2022/10/27 08:24:21;;;;;;;2.30;0.70;;;;;;;-140.72;100.00;52729.75;4990250;28;20400;-69
2022/10/27 08:26:47;;;;;;;1.88;1.17;;;;;;;-140.72;100.00;52786.56;5001868;28;20034;-69
2022/10/27 08:29:12;;;;;;;1.38;0.57;;;;;;;-140.72;100.00;52735.81;4977637;28;20037;-68
2022/10/27 08:31:37;;;;;;;2.25;0.85;;;;;;;-140.72;100.00;52752.06;5014396;28;20112;-68
2022/10/27 08:34:03;;;;;;;3.13;0.82;;;;;;;-140.72;100.00;52743.94;5001617;28;20054;-69
2022/10/27 08:36:28;;;;;;;1.75;0.70;;;;;;;-140.72;100.00;52711.47;5009709;28;20034;-69
2022/10/27 08:38:53;;;;;;;1.23;0.50;;;;;;;-140.72;100.00;52715.53;4999898;28;20033;-69
2022/10/27 08:41:19;;;;;;;2.80;1.02;;;;;;;-140.72;100.00;52685.09;4999360;28;20056;-69
2022/10/27 08:43:59;;;;;;;1.25;0.68;;;;;;;-140.72;100.00;52748.00;4999851;28;20022;-69
2022/10/27 08:46:34;;;;;;;0.60;0.40;;;;;;;-140.72;100.00;52711.47;5006584;28;20034;-69
2022/10/27 08:49:05;;;;;;;1.02;0.50;;;;;;;-140.72;100.00;52719.59;5002226;28;20038;-69
2022/10/27 08:51:33;;;;;;;2.17;0.73;;;;;;;-140.72;100.00;52727.72;5001397;28;20026;-68
2022/10/27 08:53:59;;;;;;;5.45;0.95;;;;;;;-140.72;100.00;52733.78;4995355;28;20030;-67
2022/10/27 08:56:35;;;;;;;0.68;0.40;;;;;;;-140.72;100.00;52719.59;4999169;28;20034;-68
2022/10/27 08:59:02;;;;;;;1.85;0.57;;;;;;;-140.72;100.00;52719.59;4998925;28;20105;-68
2022/10/27 09:01:54;;;;;;;0.82;0.30;;;;;;;-140.72;100.00;52676.97;5000498;28;20030;-68
2022/10/27 09:04:43;;;;;;;0.73;0.40;;;;;;;-140.72;100.00;52711.47;4973104;28;20444;-68
2022/10/27 09:07:44;;;;;;;1.23;0.60;;;;;;;-140.72;100.00;52727.72;4998843;28;20409;-69
2022/10/27 09:10:37;;;;;;;3.72;0.70;;;;;;;-140.72;100.00;52723.66;4985097;28;20041;-68
2022/10/27 09:13:11;;;;;;;0.60;0.32;;;;;;;-140.72;100.00;52739.88;5003477;28;20027;-68
2022/10/27 09:15:40;;;;;;;3.35;0.68;;;;;;;-140.72;100.00;52731.75;4992535;28;20032;-68
2022/10/27 09:18:38;;;;;;;1.10;0.57;;;;;;;-140.72;100.00;52679.00;5001483;28;20034;-69
2022/10/27 09:21:11;;;;;;;1.00;0.47;;;;;;;-140.72;100.00;52723.66;4998754;28;20030;-69
2022/10/27 09:23:42;;;;;;;3.10;0.68;;;;;;;-140.72;100.00;52719.59;4995169;28;20047;-69
2022/10/27 09:26:10;;;;;;;6.47;0.90;;;;;;;-140.72;100.00;52676.97;4987785;28;20025;-69
2022/10/27 09:29:04;;;;;;;1.50;0.75;;;;;;;-140.72;100.00;52691.19;5001831;28;20359;-69
2022/10/27 09:31:42;;;;;;;1.20;0.60;;;;;;;-140.72;100.00;52670.88;4991109;28;20066;-69
2022/10/27 09:34:22;;;;;;;1.05;0.50;;;;;;;-140.72;100.00;52662.78;4995480;28;20042;-69
2022/10/27 09:36:48;;;;;;;0.70;0.50;;;;;;;-140.72;100.00;52672.91;5002203;28;20046;-69
2022/10/27 09:39:13;;;;;;;1.30;0.50;;;;;;;-140.72;100.00;52672.91;4998721;28;20030;-69
2022/10/27 09:41:38;;;;;;;2.60;0.40;;;;;;;-140.72;100.00;52674.94;4998474;28;20018;-69
2022/10/27 09:44:17;;;;;;;2.63;0.43;;;;;;;-140.72;100.00;52670.88;4999374;28;20500;-69
2022/10/27 09:46:43;;;;;;;2.50;0.30;;;;;;;-140.72;100.00;52679.00;4991893;28;20045;-68
2022/10/27 09:49:09;;;;;;;2.50;0.47;;;;;;;-140.72;100.00;52648.56;4999644;28;20030;-69
2022/10/27 09:52:02;;;;;;;2.78;0.60;;;;;;;-140.72;100.00;52656.69;4998410;28;20081;-68
2022/10/27 09:54:35;;;;;;;0.40;0.20;;;;;;;-140.72;100.00;52640.44;4998416;28;20018;-68
2022/10/27 09:57:18;;;;;;;0.70;0.40;;;;;;;-140.72;100.00;52672.91;4993241;28;20056;-68
2022/10/27 09:59:55;;;;;;;2.10;0.40;;;;;;;-140.72;100.00;52658.72;4988433;28;20109;-68
2022/10/27 10:02:24;;;;;;;1.42;0.52;;;;;;;-140.72;100.00;52630.31;5002835;28;20030;-69
2022/10/27 10:04:50;;;;;;;1.10;0.60;;;;;;;-140.72;100.00;52681.03;5006371;28;20026;-68
2022/10/27 10:07:38;;;;;;;1.38;0.52;;;;;;;-140.72;100.00;52652.63;4980656;28;20469;-69
2022/10/27 10:10:23;;;;;;;0.40;0.30;;;;;;;-140.72;100.00;52646.53;5000274;28;20042;-68
2022/10/27 10:13:02;;;;;;;3.60;0.60;;;;;;;-140.72;100.00;52630.31;4999566;28;20100;-69
2022/10/27 10:15:28;;;;;;;2.45;0.60;;;;;;;-140.72;100.00;52652.63;5015752;28;20033;-69
2022/10/27 10:17:59;;;;;;;3.20;0.52;;;;;;;-140.72;100.00;52650.59;5015585;28;20117;-68
2022/10/27 10:20:38;;;;;;;1.27;0.50;;;;;;;-140.72;100.00;52644.50;4998953;28;20105;-68
2022/10/27 10:23:17;;;;;;;1.27;0.40;;;;;;;-140.72;100.00;52612.03;5013377;28;20033;-68
2022/10/27 10:25:46;;;;;;;0.57;0.25;;;;;;;-140.72;100.00;52644.50;5007165;28;20291;-69
2022/10/27 10:28:19;;;;;;;0.82;0.52;;;;;;;-140.72;100.00;52660.75;5011019;28;20045;-68
2022/10/27 10:30:49;;;;;;;1.30;0.55;;;;;;;-140.72;100.00;52674.94;4998319;28;20033;-69
2022/10/27 10:33:15;;;;;;;;;;;;;;;-140.72;100.00;52648.56;5003547;28;20029;-70
2022/10/27 10:35:50;;;;;;;0.90;0.30;;;;;;;-140.72;100.00;52632.34;5010531;28;19936;-69
2022/10/27 10:38:27;;;;;;;1.20;0.40;;;;;;;-140.72;100.00;52654.66;4994658;28;20169;-69
2022/10/27 10:41:04;;;;;;;0.50;0.32;;;;;;;-140.72;100.00;52642.47;5001404;28;20034;-68
2022/10/27 10:43:29;;;;;;;1.25;0.40;;;;;;;-140.72;100.00;52618.13;5009110;28;20034;-68
2022/10/27 10:45:56;;;;;;;1.17;0.60;;;;;;;-140.72;100.00;52666.84;5011154;28;20478;-68
2022/10/27 10:48:31;;;;;;;2.05;0.40;;;;;;;-140.72;100.00;52638.41;4996631;28;20072;-69
2022/10/27 10:50:57;;;;;;;1.25;0.43;;;;;;;-140.72;100.00;52597.84;5007711;28;20026;-69
2022/10/27 10:53:30;;;;;;;0.77;0.43;;;;;;;-140.72;100.00;52622.19;4997608;28;20034;-69
2022/10/27 10:56:00;;;;;;;2.47;0.98;;;;;;;-140.72;100.00;52614.06;4996770;28;20023;-68
2022/10/27 10:58:29;;;;;;;1.85;0.85;;;;;;;-140.72;100.00;52601.91;4997620;28;20058;-68
2022/10/27 11:00:58;;;;;;;1.55;0.40;;;;;;;-140.72;100.00;52654.66;4997521;28;20030;-68
2022/10/27 11:03:26;;;;;;;1.85;0.88;;;;;;;-140.72;100.00;52610.00;4980502;28;20038;-69
2022/10/27 11:05:56;;;;;;;1.63;0.73;;;;;;;-140.72;100.00;52654.66;4997669;28;20029;-69
2022/10/27 11:08:25;;;;;;;2.50;0.63;;;;;;;-140.72;100.00;52654.66;4998035;28;20042;-68
2022/10/27 11:10:54;;;;;;;1.20;0.50;;;;;;;-140.72;100.00;52666.84;4997886;28;20508;-68
2022/10/27 11:13:23;;;;;;;0.88;0.47;;;;;;;-140.72;100.00;52687.13;4998301;28;20026;-69
2022/10/27 11:15:48;;;;;;;;;;;;;;;-140.72;100.00;52636.38;4998846;28;20113;-69
2022/10/27 11:18:25;;;;;;;2.37;0.40;;;;;;;-140.72;100.00;52656.69;5000401;28;19952;-68